Brandy Bar — WDF7323 — position and weather

sailwx.info

Track history (hours):
 
Tides and Currents Weather Stations Pressure Air Temp Water Temp Dewpoint Dewpoint Depression Visibility Wind Speed Wind Dir Waves Ship Positions

Brandy Bar

Owner: Brandy Bar, Tiburon, CA. More information available from US FCC via Universal Licensing System and Coast Guard Vessel Documentation Center.

Last reported at 2016-Aug-29 19:33 UTC. Time now 2016-Aug-29 19:58 UTC.
Position N 37°58' W 122°30'.

Type: Towing. MMSI: 367483310.

Date/timePositionNaut miles runAvg speedWind from/ knotsBaromVisibWave heightAir tempDewpointWater temp
2016-Aug-29 19:33N 37°58' W 122°30'0 0.0
2016-Aug-29 18:34N 37°58' W 122°30'0 0.0
2016-Aug-29 17:32N 37°58' W 122°30'0 0.0
2016-Aug-29 16:31N 37°58' W 122°30'0 0.0
2016-Aug-29 15:33N 37°58' W 122°30'0 0.0
2016-Aug-29 14:34N 37°58' W 122°30'0 0.0
2016-Aug-29 13:33N 37°58' W 122°30'0 0.0
2016-Aug-29 12:33N 37°58' W 122°30'0 0.0
2016-Aug-29 11:33N 37°58' W 122°30'0 0.0
2016-Aug-29 10:33N 37°58' W 122°30'0 0.0
2016-Aug-29 09:33N 37°58' W 122°30'0 0.0
2016-Aug-29 08:33N 37°58' W 122°30'0 0.0
2016-Aug-29 07:33N 37°58' W 122°30'0 0.0
2016-Aug-29 06:34N 37°58' W 122°30'0 0.0
2016-Aug-29 05:33N 37°58' W 122°30'0 0.0
2016-Aug-29 04:33N 37°58' W 122°30'0 0.0
2016-Aug-29 03:34N 37°58' W 122°30'0 0.0
2016-Aug-29 02:34N 37°58' W 122°30'2 2.3
2016-Aug-29 01:33N 37°58' W 122°27'6 6.3
2016-Aug-29 00:33N 38°02' W 122°21'24 5.4
2016-Aug-28 20:03N 38°02' W 121°50'0 0.2
2016-Aug-28 19:31N 38°02' W 121°51'0 0.0
2016-Aug-28 17:22N 38°02' W 121°51'0 0.0
2016-Aug-28 15:33N 38°02' W 121°51'0 0.0
2016-Aug-28 14:23N 38°02' W 121°51'0 0.0
2016-Aug-28 13:26N 38°02' W 121°51'0 0.0
2016-Aug-28 12:29N 38°02' W 121°51'0 0.0
2016-Aug-28 11:13N 38°02' W 121°51'0 0.0
2016-Aug-28 10:30N 38°02' W 121°51'0 0.0
2016-Aug-28 09:04N 38°02' W 121°51'0 0.0
2016-Aug-28 08:33N 38°02' W 121°51'0 0.0
2016-Aug-28 07:33N 38°02' W 121°51'0 0.0
2016-Aug-28 06:33N 38°02' W 121°51'0 0.0
2016-Aug-28 05:33N 38°02' W 121°51'0 0.0
2016-Aug-28 04:27N 38°02' W 121°51'0 0.0
2016-Aug-27 21:25N 38°02' W 121°51'0 0.0
2016-Aug-27 19:23N 38°02' W 121°51'0 0.0
2016-Aug-27 17:27N 38°02' W 121°51'0 0.0
2016-Aug-27 16:33N 38°02' W 121°51'0 0.0
2016-Aug-27 15:23N 38°02' W 121°51'0 0.0
2016-Aug-27 14:33N 38°02' W 121°51'0 0.0
2016-Aug-27 13:33N 38°02' W 121°51'0 0.0
2016-Aug-27 12:33N 38°02' W 121°51'0 0.0
2016-Aug-27 11:33N 38°02' W 121°51'0 0.0
2016-Aug-27 10:33N 38°02' W 121°51'0 0.0
2016-Aug-27 09:33N 38°02' W 121°51'0 0.0
2016-Aug-27 08:33N 38°02' W 121°51'0 0.0
2016-Aug-27 07:32N 38°02' W 121°51'0 0.0
2016-Aug-27 06:17N 38°02' W 121°51'0 0.0
2016-Aug-27 03:24N 38°02' W 121°51'0 0.0
2016-Aug-27 02:33N 38°02' W 121°51'2 0.8
2016-Aug-27 00:13N 38°03' W 121°50'2 0.2
2016-Aug-26 16:33N 38°02' W 121°51'1 0.3
2016-Aug-26 14:23N 38°02' W 121°50'0 0.4
2016-Aug-26 13:32N 38°02' W 121°51'0 0.0
2016-Aug-26 12:33N 38°02' W 121°51'0 0.0
2016-Aug-26 11:33N 38°02' W 121°51'0 0.0
2016-Aug-26 10:33N 38°02' W 121°51'0 0.0
2016-Aug-26 09:33N 38°02' W 121°51'0 0.0
2016-Aug-26 08:33N 38°02' W 121°51'0 0.0
2016-Aug-26 07:33N 38°02' W 121°51'0 0.0
2016-Aug-26 06:28N 38°02' W 121°51'0 0.0
2016-Aug-26 04:33N 38°02' W 121°51'0 0.0
2016-Aug-26 03:33N 38°02' W 121°51'0 0.0
2016-Aug-26 02:31N 38°02' W 121°51'4 2.1
2016-Aug-26 00:31N 38°03' W 121°56'10 4.9
2016-Aug-25 22:27N 38°02' W 122°08'4 3.9
2016-Aug-25 21:31N 38°04' W 122°13'3 3.6
2016-Aug-25 20:33N 38°03' W 122°17'4 3.6
2016-Aug-25 19:34N 38°02' W 122°21'4 4.0
2016-Aug-25 18:33N 37°59' W 122°25'3 3.2
2016-Aug-25 17:29N 37°58' W 122°29'1 0.3
2016-Aug-25 15:32N 37°58' W 122°30'0 0.0
2016-Aug-25 14:34N 37°58' W 122°30'0 0.1
2016-Aug-25 13:33N 37°58' W 122°30'0 0.0
2016-Aug-25 12:32N 37°58' W 122°30'0 0.0
2016-Aug-25 11:33N 37°58' W 122°30'0 0.0
2016-Aug-25 10:33N 37°58' W 122°30'0 0.0
2016-Aug-25 09:34N 37°58' W 122°30'0 0.0
2016-Aug-25 08:32N 37°58' W 122°30'0 0.0
2016-Aug-25 07:34N 37°58' W 122°30'0 0.0
2016-Aug-25 06:33N 37°58' W 122°30'0 0.0
2016-Aug-25 04:32N 37°58' W 122°30'0 0.0
2016-Aug-25 03:34N 37°58' W 122°30'0 0.0
2016-Aug-25 02:34N 37°58' W 122°30'0 0.0
2016-Aug-25 01:33N 37°58' W 122°30'1 1.2
2016-Aug-25 00:34N 37°58' W 122°29'4 3.8
2016-Aug-24 23:33N 38°00' W 122°25'4 4.3
2016-Aug-24 22:32N 37°58' W 122°30'0 0.2
2016-Aug-24 21:33N 37°58' W 122°30'0 0.0
2016-Aug-24 20:33N 37°58' W 122°30'3 3.3
2016-Aug-24 19:32N 37°59' W 122°26'1 1.5
2016-Aug-24 18:31N 37°58' W 122°27'3 2.2
2016-Aug-24 17:17N 37°58' W 122°30'0 0.0
2016-Aug-24 16:29N 37°58' W 122°30'0 0.1
2016-Aug-24 15:31N 37°58' W 122°30'0 0.0
2016-Aug-23 23:34N 37°58' W 122°30'3 2.4
2016-Aug-23 22:30N 37°58' W 122°27'1 1.4
2016-Aug-23 21:33N 37°60' W 122°26'4 3.5
2016-Aug-23 20:33N 37°58' W 122°30'0 0.0
2016-Aug-23 19:33N 37°58' W 122°30'0 0.0
2016-Aug-23 18:33N 37°58' W 122°30'0 0.0
2016-Aug-23 17:33N 37°58' W 122°30'0 0.0
2016-Aug-23 16:33N 37°58' W 122°30'0 0.0
2016-Aug-23 15:33N 37°58' W 122°30'0 0.0
2016-Aug-23 14:34N 37°58' W 122°30'0 0.0
2016-Aug-23 13:34N 37°58' W 122°30'0 0.0
2016-Aug-23 12:33N 37°58' W 122°30'0 0.0
2016-Aug-23 11:33N 37°58' W 122°30'0 0.0
2016-Aug-23 10:33N 37°58' W 122°30'0 0.0
2016-Aug-23 09:33N 37°58' W 122°30'0 0.0
2016-Aug-23 08:33N 37°58' W 122°30'0 0.0
2016-Aug-23 07:33N 37°58' W 122°30'0 0.0
2016-Aug-23 06:33N 37°58' W 122°30'0 0.0
2016-Aug-23 05:33N 37°58' W 122°30'0 0.0
2016-Aug-23 04:33N 37°58' W 122°30'0 0.0
2016-Aug-23 03:33N 37°58' W 122°30'0 0.0
2016-Aug-23 02:33N 37°58' W 122°30'0 0.0
2016-Aug-23 01:33N 37°58' W 122°30'0 0.0
2016-Aug-23 00:34N 37°58' W 122°30'0 0.0
2016-Aug-22 23:34N 37°58' W 122°30'2 1.8
2016-Aug-22 22:32N 37°58' W 122°28'3 2.9
2016-Aug-22 21:33N 37°60' W 122°25'2 1.8
2016-Aug-22 20:33N 37°58' W 122°27'3 2.9
2016-Aug-22 19:34N 38°00' W 122°24'4 4.0
2016-Aug-22 18:33N 38°02' W 122°20'15 6.0
2016-Aug-22 16:04N 38°04' W 122°01'5 5.0
2016-Aug-22 15:09N 38°03' W 121°55'4 2.2
2016-Aug-22 13:24N 38°02' W 121°50'0 0.2
2016-Aug-22 12:34N 38°02' W 121°51'0 0.0
2016-Aug-22 11:34N 38°02' W 121°51'0 0.0
2016-Aug-22 10:34N 38°02' W 121°51'0 0.0
2016-Aug-22 09:18N 38°02' W 121°51'0 0.0
2016-Aug-22 08:33N 38°02' W 121°51'0 0.0
2016-Aug-22 07:33N 38°02' W 121°51'0 0.0
2016-Aug-22 06:32N 38°02' W 121°51'0 0.0
2016-Aug-22 05:34N 38°02' W 121°51'0 0.0
2016-Aug-22 04:32N 38°02' W 121°51'0 0.0
2016-Aug-22 03:34N 38°02' W 121°51'0 0.0
2016-Aug-22 02:32N 38°02' W 121°51'0 0.0
2016-Aug-22 01:33N 38°02' W 121°51'0 0.0
2016-Aug-22 00:34N 38°02' W 121°51'0 0.0
2016-Aug-21 23:33N 38°02' W 121°51'2 1.7
2016-Aug-21 22:34N 38°03' W 121°50'0 0.0
2016-Aug-21 21:34N 38°03' W 121°50'0 0.0
2016-Aug-21 20:32N 38°03' W 121°50'0 0.0
2016-Aug-21 19:34N 38°03' W 121°50'0 0.0
2016-Aug-21 18:34N 38°03' W 121°50'0 0.0
2016-Aug-21 17:33N 38°03' W 121°50'0 0.0
2016-Aug-21 16:34N 38°03' W 121°50'2 1.7
2016-Aug-21 15:34N 38°02' W 121°51'0 0.0
2016-Aug-21 14:33N 38°02' W 121°51'0 0.0
2016-Aug-21 13:34N 38°02' W 121°51'0 0.0
2016-Aug-21 12:33N 38°02' W 121°51'0 0.0
2016-Aug-21 11:33N 38°02' W 121°51'0 0.0
2016-Aug-21 10:34N 38°02' W 121°51'0 0.0
2016-Aug-21 09:34N 38°02' W 121°51'0 0.0
2016-Aug-21 08:34N 38°02' W 121°51'0 0.0
2016-Aug-21 07:29N 38°02' W 121°51'0 0.0
2016-Aug-21 06:34N 38°02' W 121°51'0 0.0
2016-Aug-21 05:30N 38°02' W 121°51'0 0.0
2016-Aug-21 04:34N 38°02' W 121°51'2 1.5
2016-Aug-21 03:28N 38°03' W 121°50'0 0.1
2016-Aug-21 02:20N 38°03' W 121°50'1 1.3
2016-Aug-21 01:27N 38°02' W 121°50'1 0.3
2016-Aug-20 22:29N 38°02' W 121°51'1 1.4
2016-Aug-20 21:34N 38°03' W 121°50'1 1.4
2016-Aug-20 20:34N 38°04' W 121°51'8 7.1
2016-Aug-20 19:25N 38°04' W 122°02'6 7.0
2016-Aug-20 18:34N 38°02' W 122°09'6 5.8
2016-Aug-20 17:34N 38°03' W 122°17'6 6.4
2016-Aug-20 16:33N 38°00' W 122°24'5 5.1
2016-Aug-20 15:33N 37°58' W 122°30'0 0.3
2016-Aug-20 14:34N 37°58' W 122°30'0 0.0
2016-Aug-20 13:34N 37°58' W 122°30'0 0.0
2016-Aug-20 12:34N 37°58' W 122°30'0 0.0
2016-Aug-20 11:34N 37°58' W 122°30'0 0.0
2016-Aug-20 10:33N 37°58' W 122°30'0 0.0
2016-Aug-20 09:34N 37°58' W 122°30'0 0.0
2016-Aug-20 08:33N 37°58' W 122°30'0 0.0
2016-Aug-20 07:34N 37°58' W 122°30'0 0.0
2016-Aug-20 06:34N 37°58' W 122°30'0 0.0
2016-Aug-20 05:34N 37°58' W 122°30'0 0.0
2016-Aug-20 04:33N 37°58' W 122°30'0 0.0
2016-Aug-20 03:34N 37°58' W 122°30'0 0.0
2016-Aug-20 02:33N 37°58' W 122°30'0 0.0
2016-Aug-20 01:33N 37°58' W 122°30'0 0.0
2016-Aug-20 00:33N 37°58' W 122°30'0 0.0
2016-Aug-19 23:32N 37°58' W 122°30'1 1.4
2016-Aug-19 22:33N 37°58' W 122°28'3 3.4
2016-Aug-19 21:33N 38°00' W 122°25'4 3.9
2016-Aug-19 20:29N 37°58' W 122°30'0 0.1
2016-Aug-19 19:34N 37°58' W 122°30'  
Track history (hours):
 
Tides and Currents Weather Stations Pressure Air Temp Water Temp Dewpoint Dewpoint Depression Visibility Wind Speed Wind Dir Waves Ship Positions

Brandy Bar

Owner: Brandy Bar, Tiburon, CA. More information available from US FCC via Universal Licensing System and Coast Guard Vessel Documentation Center.

Last reported at 2016-Aug-29 19:33 UTC. Time now 2016-Aug-29 19:58 UTC.
Position N 37°58' W 122°30'.

Type: Towing. MMSI: 367483310.

Date/timePositionNaut miles runAvg speedWind from/ knotsBaromVisibWave heightAir tempDewpointWater temp
2016-Aug-29 19:33N 37°58' W 122°30'0 0.0
2016-Aug-29 18:34N 37°58' W 122°30'0 0.0
2016-Aug-29 17:32N 37°58' W 122°30'0 0.0
2016-Aug-29 16:31N 37°58' W 122°30'0 0.0
2016-Aug-29 15:33N 37°58' W 122°30'0 0.0
2016-Aug-29 14:34N 37°58' W 122°30'0 0.0
2016-Aug-29 13:33N 37°58' W 122°30'0 0.0
2016-Aug-29 12:33N 37°58' W 122°30'0 0.0
2016-Aug-29 11:33N 37°58' W 122°30'0 0.0
2016-Aug-29 10:33N 37°58' W 122°30'0 0.0
2016-Aug-29 09:33N 37°58' W 122°30'0 0.0
2016-Aug-29 08:33N 37°58' W 122°30'0 0.0
2016-Aug-29 07:33N 37°58' W 122°30'0 0.0
2016-Aug-29 06:34N 37°58' W 122°30'0 0.0
2016-Aug-29 05:33N 37°58' W 122°30'0 0.0
2016-Aug-29 04:33N 37°58' W 122°30'0 0.0
2016-Aug-29 03:34N 37°58' W 122°30'0 0.0
2016-Aug-29 02:34N 37°58' W 122°30'2 2.3
2016-Aug-29 01:33N 37°58' W 122°27'6 6.3
2016-Aug-29 00:33N 38°02' W 122°21'24 5.4
2016-Aug-28 20:03N 38°02' W 121°50'0 0.2
2016-Aug-28 19:31N 38°02' W 121°51'0 0.0
2016-Aug-28 17:22N 38°02' W 121°51'0 0.0
2016-Aug-28 15:33N 38°02' W 121°51'0 0.0
2016-Aug-28 14:23N 38°02' W 121°51'0 0.0
2016-Aug-28 13:26N 38°02' W 121°51'0 0.0
2016-Aug-28 12:29N 38°02' W 121°51'0 0.0
2016-Aug-28 11:13N 38°02' W 121°51'0 0.0
2016-Aug-28 10:30N 38°02' W 121°51'0 0.0
2016-Aug-28 09:04N 38°02' W 121°51'0 0.0
2016-Aug-28 08:33N 38°02' W 121°51'0 0.0
2016-Aug-28 07:33N 38°02' W 121°51'0 0.0
2016-Aug-28 06:33N 38°02' W 121°51'0 0.0
2016-Aug-28 05:33N 38°02' W 121°51'0 0.0
2016-Aug-28 04:27N 38°02' W 121°51'0 0.0
2016-Aug-27 21:25N 38°02' W 121°51'0 0.0
2016-Aug-27 19:23N 38°02' W 121°51'0 0.0
2016-Aug-27 17:27N 38°02' W 121°51'0 0.0
2016-Aug-27 16:33N 38°02' W 121°51'0 0.0
2016-Aug-27 15:23N 38°02' W 121°51'0 0.0
2016-Aug-27 14:33N 38°02' W 121°51'0 0.0
2016-Aug-27 13:33N 38°02' W 121°51'0 0.0
2016-Aug-27 12:33N 38°02' W 121°51'0 0.0
2016-Aug-27 11:33N 38°02' W 121°51'0 0.0
2016-Aug-27 10:33N 38°02' W 121°51'0 0.0
2016-Aug-27 09:33N 38°02' W 121°51'0 0.0
2016-Aug-27 08:33N 38°02' W 121°51'0 0.0
2016-Aug-27 07:32N 38°02' W 121°51'0 0.0
2016-Aug-27 06:17N 38°02' W 121°51'0 0.0
2016-Aug-27 03:24N 38°02' W 121°51'0 0.0
2016-Aug-27 02:33N 38°02' W 121°51'2 0.8
2016-Aug-27 00:13N 38°03' W 121°50'2 0.2
2016-Aug-26 16:33N 38°02' W 121°51'1 0.3
2016-Aug-26 14:23N 38°02' W 121°50'0 0.4
2016-Aug-26 13:32N 38°02' W 121°51'0 0.0
2016-Aug-26 12:33N 38°02' W 121°51'0 0.0
2016-Aug-26 11:33N 38°02' W 121°51'0 0.0
2016-Aug-26 10:33N 38°02' W 121°51'0 0.0
2016-Aug-26 09:33N 38°02' W 121°51'0 0.0
2016-Aug-26 08:33N 38°02' W 121°51'0 0.0
2016-Aug-26 07:33N 38°02' W 121°51'0 0.0
2016-Aug-26 06:28N 38°02' W 121°51'0 0.0
2016-Aug-26 04:33N 38°02' W 121°51'0 0.0
2016-Aug-26 03:33N 38°02' W 121°51'0 0.0
2016-Aug-26 02:31N 38°02' W 121°51'4 2.1
2016-Aug-26 00:31N 38°03' W 121°56'10 4.9
2016-Aug-25 22:27N 38°02' W 122°08'4 3.9
2016-Aug-25 21:31N 38°04' W 122°13'3 3.6
2016-Aug-25 20:33N 38°03' W 122°17'4 3.6
2016-Aug-25 19:34N 38°02' W 122°21'4 4.0
2016-Aug-25 18:33N 37°59' W 122°25'3 3.2
2016-Aug-25 17:29N 37°58' W 122°29'1 0.3
2016-Aug-25 15:32N 37°58' W 122°30'0 0.0
2016-Aug-25 14:34N 37°58' W 122°30'0 0.1
2016-Aug-25 13:33N 37°58' W 122°30'0 0.0
2016-Aug-25 12:32N 37°58' W 122°30'0 0.0
2016-Aug-25 11:33N 37°58' W 122°30'0 0.0
2016-Aug-25 10:33N 37°58' W 122°30'0 0.0
2016-Aug-25 09:34N 37°58' W 122°30'0 0.0
2016-Aug-25 08:32N 37°58' W 122°30'0 0.0
2016-Aug-25 07:34N 37°58' W 122°30'0 0.0
2016-Aug-25 06:33N 37°58' W 122°30'0 0.0
2016-Aug-25 04:32N 37°58' W 122°30'0 0.0
2016-Aug-25 03:34N 37°58' W 122°30'0 0.0
2016-Aug-25 02:34N 37°58' W 122°30'0 0.0
2016-Aug-25 01:33N 37°58' W 122°30'1 1.2
2016-Aug-25 00:34N 37°58' W 122°29'4 3.8
2016-Aug-24 23:33N 38°00' W 122°25'4 4.3
2016-Aug-24 22:32N 37°58' W 122°30'0 0.2
2016-Aug-24 21:33N 37°58' W 122°30'0 0.0
2016-Aug-24 20:33N 37°58' W 122°30'3 3.3
2016-Aug-24 19:32N 37°59' W 122°26'1 1.5
2016-Aug-24 18:31N 37°58' W 122°27'3 2.2
2016-Aug-24 17:17N 37°58' W 122°30'0 0.0
2016-Aug-24 16:29N 37°58' W 122°30'0 0.1
2016-Aug-24 15:31N 37°58' W 122°30'0 0.0
2016-Aug-23 23:34N 37°58' W 122°30'3 2.4
2016-Aug-23 22:30N 37°58' W 122°27'1 1.4
2016-Aug-23 21:33N 37°60' W 122°26'4 3.5
2016-Aug-23 20:33N 37°58' W 122°30'0 0.0
2016-Aug-23 19:33N 37°58' W 122°30'0 0.0
2016-Aug-23 18:33N 37°58' W 122°30'0 0.0
2016-Aug-23 17:33N 37°58' W 122°30'0 0.0
2016-Aug-23 16:33N 37°58' W 122°30'0 0.0
2016-Aug-23 15:33N 37°58' W 122°30'0 0.0
2016-Aug-23 14:34N 37°58' W 122°30'0 0.0
2016-Aug-23 13:34N 37°58' W 122°30'0 0.0
2016-Aug-23 12:33N 37°58' W 122°30'0 0.0
2016-Aug-23 11:33N 37°58' W 122°30'0 0.0
2016-Aug-23 10:33N 37°58' W 122°30'0 0.0
2016-Aug-23 09:33N 37°58' W 122°30'0 0.0
2016-Aug-23 08:33N 37°58' W 122°30'0 0.0
2016-Aug-23 07:33N 37°58' W 122°30'0 0.0
2016-Aug-23 06:33N 37°58' W 122°30'0 0.0
2016-Aug-23 05:33N 37°58' W 122°30'0 0.0
2016-Aug-23 04:33N 37°58' W 122°30'0 0.0
2016-Aug-23 03:33N 37°58' W 122°30'0 0.0
2016-Aug-23 02:33N 37°58' W 122°30'0 0.0
2016-Aug-23 01:33N 37°58' W 122°30'0 0.0
2016-Aug-23 00:34N 37°58' W 122°30'0 0.0
2016-Aug-22 23:34N 37°58' W 122°30'2 1.8
2016-Aug-22 22:32N 37°58' W 122°28'3 2.9
2016-Aug-22 21:33N 37°60' W 122°25'2 1.8
2016-Aug-22 20:33N 37°58' W 122°27'3 2.9
2016-Aug-22 19:34N 38°00' W 122°24'4 4.0
2016-Aug-22 18:33N 38°02' W 122°20'15 6.0
2016-Aug-22 16:04N 38°04' W 122°01'5 5.0
2016-Aug-22 15:09N 38°03' W 121°55'4 2.2
2016-Aug-22 13:24N 38°02' W 121°50'0 0.2
2016-Aug-22 12:34N 38°02' W 121°51'0 0.0
2016-Aug-22 11:34N 38°02' W 121°51'0 0.0
2016-Aug-22 10:34N 38°02' W 121°51'0 0.0
2016-Aug-22 09:18N 38°02' W 121°51'0 0.0
2016-Aug-22 08:33N 38°02' W 121°51'0 0.0
2016-Aug-22 07:33N 38°02' W 121°51'0 0.0
2016-Aug-22 06:32N 38°02' W 121°51'0 0.0
2016-Aug-22 05:34N 38°02' W 121°51'0 0.0
2016-Aug-22 04:32N 38°02' W 121°51'0 0.0
2016-Aug-22 03:34N 38°02' W 121°51'0 0.0
2016-Aug-22 02:32N 38°02' W 121°51'0 0.0
2016-Aug-22 01:33N 38°02' W 121°51'0 0.0
2016-Aug-22 00:34N 38°02' W 121°51'0 0.0
2016-Aug-21 23:33N 38°02' W 121°51'2 1.7
2016-Aug-21 22:34N 38°03' W 121°50'0 0.0
2016-Aug-21 21:34N 38°03' W 121°50'0 0.0
2016-Aug-21 20:32N 38°03' W 121°50'0 0.0
2016-Aug-21 19:34N 38°03' W 121°50'0 0.0
2016-Aug-21 18:34N 38°03' W 121°50'0 0.0
2016-Aug-21 17:33N 38°03' W 121°50'0 0.0
2016-Aug-21 16:34N 38°03' W 121°50'2 1.7
2016-Aug-21 15:34N 38°02' W 121°51'0 0.0
2016-Aug-21 14:33N 38°02' W 121°51'0 0.0
2016-Aug-21 13:34N 38°02' W 121°51'0 0.0
2016-Aug-21 12:33N 38°02' W 121°51'0 0.0
2016-Aug-21 11:33N 38°02' W 121°51'0 0.0
2016-Aug-21 10:34N 38°02' W 121°51'0 0.0
2016-Aug-21 09:34N 38°02' W 121°51'0 0.0
2016-Aug-21 08:34N 38°02' W 121°51'0 0.0
2016-Aug-21 07:29N 38°02' W 121°51'0 0.0
2016-Aug-21 06:34N 38°02' W 121°51'0 0.0
2016-Aug-21 05:30N 38°02' W 121°51'0 0.0
2016-Aug-21 04:34N 38°02' W 121°51'2 1.5
2016-Aug-21 03:28N 38°03' W 121°50'0 0.1
2016-Aug-21 02:20N 38°03' W 121°50'1 1.3
2016-Aug-21 01:27N 38°02' W 121°50'1 0.3
2016-Aug-20 22:29N 38°02' W 121°51'1 1.4
2016-Aug-20 21:34N 38°03' W 121°50'1 1.4
2016-Aug-20 20:34N 38°04' W 121°51'8 7.1
2016-Aug-20 19:25N 38°04' W 122°02'6 7.0
2016-Aug-20 18:34N 38°02' W 122°09'6 5.8
2016-Aug-20 17:34N 38°03' W 122°17'6 6.4
2016-Aug-20 16:33N 38°00' W 122°24'5 5.1
2016-Aug-20 15:33N 37°58' W 122°30'0 0.3
2016-Aug-20 14:34N 37°58' W 122°30'0 0.0
2016-Aug-20 13:34N 37°58' W 122°30'0 0.0
2016-Aug-20 12:34N 37°58' W 122°30'0 0.0
2016-Aug-20 11:34N 37°58' W 122°30'0 0.0
2016-Aug-20 10:33N 37°58' W 122°30'0 0.0
2016-Aug-20 09:34N 37°58' W 122°30'0 0.0
2016-Aug-20 08:33N 37°58' W 122°30'0 0.0
2016-Aug-20 07:34N 37°58' W 122°30'0 0.0
2016-Aug-20 06:34N 37°58' W 122°30'0 0.0
2016-Aug-20 05:34N 37°58' W 122°30'0 0.0
2016-Aug-20 04:33N 37°58' W 122°30'0 0.0
2016-Aug-20 03:34N 37°58' W 122°30'0 0.0
2016-Aug-20 02:33N 37°58' W 122°30'0 0.0
2016-Aug-20 01:33N 37°58' W 122°30'0 0.0
2016-Aug-20 00:33N 37°58' W 122°30'0 0.0
2016-Aug-19 23:32N 37°58' W 122°30'1 1.4
2016-Aug-19 22:33N 37°58' W 122°28'3 3.4
2016-Aug-19 21:33N 38°00' W 122°25'4 3.9
2016-Aug-19 20:29N 37°58' W 122°30'0 0.1
2016-Aug-19 19:34N 37°58' W 122°30'  

Dump ship's entire track history